createdAt,value
2018-06-15T00:00:06.303Z,16.83
2018-06-15T00:02:35.403Z,18.23
2018-06-15T00:05:05.089Z,18.43
2018-06-15T00:07:33.286Z,15.50
2018-06-15T00:10:02.566Z,15.40
2018-06-15T00:12:31.542Z,16.17
2018-06-15T00:14:59.773Z,20.43
2018-06-15T00:17:28.097Z,18.07
2018-06-15T00:19:56.202Z,16.13
2018-06-15T00:22:24.805Z,16.03
2018-06-15T00:24:53.889Z,15.83
2018-06-15T00:27:22.182Z,16.13
2018-06-15T00:29:50.891Z,17.20
2018-06-15T00:32:19.502Z,19.57
2018-06-15T00:34:47.730Z,16.63
2018-06-15T00:37:15.637Z,17.83
2018-06-15T00:39:43.759Z,17.00
2018-06-15T00:42:11.924Z,14.87
2018-06-15T00:44:40.098Z,16.37
2018-06-15T00:47:08.600Z,17.37
2018-06-15T00:49:36.778Z,16.07
2018-06-15T00:52:05.003Z,17.80
2018-06-15T00:54:33.284Z,16.47
2018-06-15T00:57:13.297Z,14.60
2018-06-15T00:59:41.789Z,18.73
2018-06-15T01:02:10.084Z,16.40
2018-06-15T01:04:39.054Z,16.23
2018-06-15T01:07:07.273Z,15.77
2018-06-15T01:09:35.401Z,18.97
2018-06-15T01:12:03.539Z,19.93
2018-06-15T01:14:32.222Z,17.83
2018-06-15T01:17:00.639Z,15.43
2018-06-15T01:19:28.526Z,18.27
2018-06-15T01:21:57.230Z,21.50
2018-06-15T01:24:25.909Z,24.70
2018-06-15T01:26:54.131Z,17.93
2018-06-15T01:29:22.959Z,21.73
2018-06-15T01:31:51.433Z,18.27
2018-06-15T01:34:20.169Z,13.90
2018-06-15T01:36:48.302Z,13.80
2018-06-15T01:39:17.033Z,20.43
2018-06-15T01:41:45.810Z,16.63
2018-06-15T01:44:14.120Z,18.27
2018-06-15T01:46:42.297Z,19.97
2018-06-15T01:49:10.381Z,14.20
2018-06-15T01:51:38.539Z,18.87
2018-06-15T01:54:07.323Z,14.97
2018-06-15T01:56:35.520Z,17.20
2018-06-15T01:59:04.171Z,13.37
2018-06-15T02:01:32.262Z,16.13
2018-06-15T02:04:01.648Z,14.00
2018-06-15T02:06:29.726Z,14.37
2018-06-15T02:08:58.022Z,15.53
2018-06-15T02:11:27.301Z,14.60
2018-06-15T02:13:55.551Z,15.40
2018-06-15T02:16:24.179Z,14.33
2018-06-15T02:18:52.389Z,15.60
2018-06-15T02:21:21.215Z,16.20
2018-06-15T02:23:50.113Z,15.00
2018-06-15T02:26:18.531Z,17.60
2018-06-15T02:28:46.990Z,16.10
2018-06-15T02:31:15.147Z,18.40
2018-06-15T02:33:43.333Z,12.67
2018-06-15T02:36:11.724Z,18.10
2018-06-15T02:38:39.999Z,19.07
2018-06-15T02:41:08.180Z,16.60
2018-06-15T02:43:36.744Z,17.87
2018-06-15T02:46:04.931Z,21.83
2018-06-15T02:48:33.321Z,20.92
2018-06-15T02:51:02.198Z,20.27
2018-06-15T02:53:30.446Z,13.73
2018-06-15T02:55:59.160Z,21.67
2018-06-15T02:58:27.441Z,15.93
2018-06-15T03:00:55.690Z,19.03
2018-06-15T03:03:23.827Z,18.80
2018-06-15T03:05:53.004Z,16.67
2018-06-15T03:08:21.149Z,14.87
2018-06-15T03:10:49.347Z,15.70
2018-06-15T03:13:18.430Z,17.67
2018-06-15T03:15:47.199Z,16.47
2018-06-15T03:18:16.124Z,20.80
2018-06-15T03:20:44.279Z,15.47
2018-06-15T03:23:12.458Z,14.63
2018-06-15T03:25:40.646Z,16.73
2018-06-15T03:28:08.838Z,14.60
2018-06-15T03:30:37.190Z,15.07
2018-06-15T03:33:06.197Z,16.87
2018-06-15T03:35:34.783Z,20.70
2018-06-15T03:38:02.715Z,13.47
2018-06-15T03:40:31.579Z,15.00
2018-06-15T03:42:59.967Z,14.30
2018-06-15T03:45:28.481Z,18.17
2018-06-15T03:47:57.432Z,18.93
2018-06-15T03:50:26.254Z,19.30
2018-06-15T03:52:54.857Z,21.10
2018-06-15T03:55:23.275Z,15.50
2018-06-15T03:57:51.393Z,20.17
2018-06-15T04:00:20.189Z,16.93
2018-06-15T04:02:48.921Z,21.13
2018-06-15T04:05:17.977Z,23.50
2018-06-15T04:07:46.408Z,22.83
2018-06-15T04:10:14.582Z,27.30
2018-06-15T04:12:42.883Z,28.30
2018-06-15T04:15:12.044Z,18.67
2018-06-15T04:17:40.693Z,18.47
2018-06-15T04:20:09.163Z,23.17
2018-06-15T04:22:37.684Z,21.73
2018-06-15T04:25:05.900Z,25.50
2018-06-15T04:29:03.599Z,25.27
2018-06-15T04:31:31.870Z,21.33
2018-06-15T04:34:00.088Z,21.03
2018-06-15T04:36:29.214Z,25.90
2018-06-15T04:38:57.376Z,22.33
2018-06-15T04:41:25.848Z,22.80
2018-06-15T04:43:54.262Z,21.30
2018-06-15T04:46:22.699Z,24.70
2018-06-15T04:48:50.861Z,21.53
2018-06-15T04:51:19.730Z,18.53
2018-06-15T04:53:48.040Z,17.63
2018-06-15T04:56:16.346Z,19.77
2018-06-15T04:58:44.685Z,17.67
2018-06-15T05:01:12.835Z,12.37
2018-06-15T05:03:41.181Z,15.47
2018-06-15T05:06:09.472Z,13.53
2018-06-15T05:08:37.578Z,10.80
2018-06-15T05:11:06.237Z,11.40
2018-06-15T05:13:34.417Z,12.60
2018-06-15T05:16:03.496Z,10.98
2018-06-15T05:18:31.874Z,11.22
2018-06-15T05:21:00.197Z,10.98
2018-06-15T05:23:29.075Z,10.20
2018-06-15T05:25:57.238Z,9.05
2018-06-15T05:28:27.012Z,8.55
2018-06-15T05:30:55.433Z,10.23
2018-06-15T05:33:24.207Z,14.00
2018-06-15T05:35:52.670Z,7.40
2018-06-15T05:38:22.258Z,7.50
2018-06-15T05:40:50.489Z,9.75
2018-06-15T05:43:18.674Z,9.00
2018-06-15T05:45:46.825Z,8.55
2018-06-15T05:48:16.082Z,9.03
2018-06-15T05:50:45.537Z,8.45
2018-06-15T05:53:13.753Z,8.50
2018-06-15T05:55:41.978Z,8.63
2018-06-15T05:58:10.965Z,8.95
2018-06-15T06:00:39.142Z,4.40
2018-06-15T06:03:07.349Z,3.75
2018-06-15T06:05:35.521Z,5.87
2018-06-15T06:08:04.527Z,6.17
2018-06-15T06:10:33.347Z,4.92
2018-06-15T06:13:01.892Z,6.03
2018-06-15T06:15:30.142Z,4.15
2018-06-15T06:17:58.305Z,3.83
2018-06-15T06:20:26.519Z,4.30
2018-06-15T06:22:54.666Z,5.58
2018-06-15T06:25:22.883Z,4.15
2018-06-15T06:27:51.025Z,6.10
2018-06-15T06:30:19.208Z,2.33
2018-06-15T06:32:47.382Z,3.30
2018-06-15T06:35:15.575Z,4.58
2018-06-15T06:37:43.574Z,4.90
2018-06-15T06:40:11.680Z,3.40
2018-06-15T06:42:39.866Z,3.45
2018-06-15T06:45:08.554Z,2.37
2018-06-15T06:47:36.740Z,5.72
2018-06-15T06:50:04.979Z,4.47
2018-06-15T06:52:33.277Z,3.00
2018-06-15T06:55:01.516Z,3.37
2018-06-15T06:57:30.026Z,2.33
2018-06-15T06:59:58.452Z,6.85
2018-06-15T07:02:27.527Z,3.47
2018-06-15T07:04:56.146Z,3.85
2018-06-15T07:07:25.985Z,2.87
2018-06-15T07:09:54.986Z,2.40
2018-06-15T07:12:23.326Z,4.30
2018-06-15T07:14:55.035Z,3.62
2018-06-15T07:17:23.580Z,3.20
2018-06-15T07:19:51.982Z,1.98
2018-06-15T07:22:20.503Z,4.37
2018-06-15T07:24:48.895Z,3.30
2018-06-15T07:27:17.408Z,3.02
2018-06-15T07:29:46.145Z,2.92
2018-06-15T07:32:14.307Z,1.87
2018-06-15T07:34:42.550Z,2.40
2018-06-15T07:37:11.418Z,2.15
2018-06-15T07:39:40.090Z,1.65
2018-06-15T07:42:08.867Z,3.40
2018-06-15T07:44:38.149Z,1.87
2018-06-15T07:47:06.392Z,3.05
2018-06-15T07:49:34.757Z,2.83
2018-06-15T07:52:04.360Z,2.25
2018-06-15T07:54:33.190Z,2.87
2018-06-15T07:57:01.331Z,1.65
2018-06-15T07:59:29.512Z,2.10
2018-06-15T08:01:57.606Z,1.77
2018-06-15T08:04:26.829Z,1.57
2018-06-15T08:06:55.327Z,2.45
2018-06-15T08:09:23.454Z,2.33
2018-06-15T08:11:51.726Z,1.35
2018-06-15T08:14:20.719Z,1.72
2018-06-15T08:16:49.021Z,1.95
2018-06-15T08:19:17.142Z,1.57
2018-06-15T08:21:45.622Z,1.22
2018-06-15T08:24:13.779Z,1.87
2018-06-15T08:26:42.475Z,2.15
2018-06-15T08:29:11.094Z,0.90
2018-06-15T08:31:39.189Z,1.27
2018-06-15T08:34:07.773Z,1.45
2018-06-15T08:36:36.014Z,1.72
2018-06-15T08:39:07.321Z,1.20
2018-06-15T08:41:35.958Z,1.32
2018-06-15T08:44:04.294Z,0.85
2018-06-15T08:46:33.819Z,1.62
2018-06-15T08:49:03.074Z,1.85
2018-06-15T08:51:32.790Z,1.22
2018-06-15T08:54:01.183Z,1.80
2018-06-15T08:56:29.959Z,2.02
2018-06-15T08:58:58.421Z,2.70
2018-06-15T09:01:26.769Z,2.52
2018-06-15T09:03:55.353Z,1.15
2018-06-15T09:06:23.476Z,1.62
2018-06-15T09:08:51.725Z,1.55
2018-06-15T09:11:20.235Z,2.35
2018-06-15T09:13:49.983Z,1.32
2018-06-15T09:16:18.689Z,1.37
2018-06-15T09:18:47.471Z,1.47
2018-06-15T09:21:15.730Z,2.35
2018-06-15T09:23:45.046Z,1.40
2018-06-15T09:26:13.194Z,1.32
2018-06-15T09:28:41.722Z,1.35
2018-06-15T09:31:11.062Z,1.17
2018-06-15T09:33:39.286Z,1.37
2018-06-15T09:36:07.426Z,1.32
2018-06-15T09:38:36.423Z,1.55
2018-06-15T09:41:04.645Z,2.22
2018-06-15T09:43:33.262Z,2.58
2018-06-15T09:46:01.939Z,2.40
2018-06-15T09:48:30.937Z,1.30
2018-06-15T09:50:59.640Z,1.45
2018-06-15T09:53:29.474Z,1.85
2018-06-15T09:55:57.671Z,1.55
2018-06-15T09:58:26.282Z,1.65
2018-06-15T10:00:59.826Z,0.93
2018-06-15T10:03:27.994Z,1.72
2018-06-15T10:05:56.431Z,2.47
2018-06-15T10:08:24.625Z,1.55
2018-06-15T10:10:52.855Z,1.65
2018-06-15T10:13:21.789Z,0.95
2018-06-15T10:15:50.706Z,1.82
2018-06-15T10:18:19.485Z,1.55
2018-06-15T10:20:47.750Z,1.32
2018-06-15T10:23:15.997Z,0.98
2018-06-15T10:25:44.517Z,1.42
2018-06-15T10:28:13.225Z,2.12
2018-06-15T10:30:42.515Z,0.78
2018-06-15T10:33:12.315Z,1.10
2018-06-15T10:35:40.747Z,1.67
2018-06-15T10:38:09.586Z,1.27
2018-06-15T10:40:38.765Z,2.05
2018-06-15T10:43:06.861Z,1.60
2018-06-15T10:45:36.073Z,1.80
2018-06-15T10:48:04.434Z,1.45
2018-06-15T10:50:33.438Z,1.30
2018-06-15T10:53:01.682Z,2.08
2018-06-15T10:55:31.090Z,1.02
2018-06-15T10:58:00.221Z,1.12
2018-06-15T11:00:28.426Z,1.15
2018-06-15T11:02:56.617Z,1.12
2018-06-15T11:05:25.149Z,1.42
2018-06-15T11:07:54.037Z,1.07
2018-06-15T11:10:23.168Z,0.93
2018-06-15T11:12:51.586Z,1.20
2018-06-15T11:15:19.701Z,2.65
2018-06-15T11:17:48.101Z,1.07
2018-06-15T11:20:17.362Z,2.87
2018-06-15T11:22:46.382Z,1.05
2018-06-15T11:25:15.693Z,0.88
2018-06-15T11:27:44.818Z,2.42
2018-06-15T11:30:12.962Z,1.37
2018-06-15T11:32:42.199Z,1.20
2018-06-15T11:35:10.405Z,2.37
2018-06-15T11:37:38.993Z,1.00
2018-06-15T11:40:07.238Z,1.98
2018-06-15T11:42:36.110Z,1.50
2018-06-15T11:45:04.361Z,1.52
2018-06-15T11:47:33.297Z,0.88
2018-06-15T11:50:01.466Z,0.80
2018-06-15T11:52:29.585Z,1.72
2018-06-15T11:54:58.681Z,1.67
2018-06-15T11:57:27.191Z,0.60
2018-06-15T11:59:55.474Z,1.42
2018-06-15T12:02:23.666Z,3.10
2018-06-15T12:04:51.669Z,1.15
2018-06-15T12:07:19.984Z,0.95
2018-06-15T12:09:49.841Z,1.02
2018-06-15T12:12:19.114Z,0.95
2018-06-15T12:14:47.810Z,2.50
2018-06-15T12:17:16.339Z,1.70
2018-06-15T12:19:45.698Z,1.52
2018-06-15T12:22:14.315Z,1.12
2018-06-15T12:24:42.935Z,1.45
2018-06-15T12:27:11.607Z,1.12
2018-06-15T12:29:40.045Z,0.85
2018-06-15T12:32:08.274Z,0.88
2018-06-15T12:34:37.773Z,1.82
2018-06-15T12:37:06.719Z,2.00
2018-06-15T12:39:34.978Z,1.77
2018-06-15T12:42:03.294Z,0.80
2018-06-15T12:44:32.201Z,1.65
2018-06-15T12:47:00.425Z,1.27
2018-06-15T12:49:29.506Z,1.55
2018-06-15T12:51:57.693Z,0.72
2018-06-15T12:54:25.854Z,2.10
2018-06-15T12:56:54.029Z,1.10
2018-06-15T12:59:22.481Z,1.95
2018-06-15T13:01:50.817Z,1.37
2018-06-15T13:04:35.023Z,1.10
2018-06-15T13:07:20.761Z,2.72
2018-06-15T13:10:03.922Z,1.80
2018-06-15T13:13:46.852Z,1.40
2018-06-15T13:16:30.077Z,1.25
2018-06-15T13:19:10.950Z,1.85
2018-06-15T13:21:59.715Z,1.42
2018-06-15T13:24:48.159Z,2.33
2018-06-15T13:27:32.943Z,1.90
2018-06-15T13:30:14.002Z,1.47
2018-06-15T13:32:52.971Z,1.07
2018-06-15T13:38:20.107Z,1.45
2018-06-15T13:40:57.700Z,1.10
2018-06-15T13:46:51.117Z,2.52
2018-06-15T13:49:33.508Z,0.95
2018-06-15T13:52:09.190Z,2.25
2018-06-15T13:54:49.986Z,1.17
2018-06-15T13:57:47.587Z,1.77
2018-06-15T14:00:30.400Z,1.07
2018-06-15T14:03:08.229Z,2.35
2018-06-15T14:05:52.500Z,1.62
2018-06-15T14:08:35.394Z,2.60
2018-06-15T14:11:11.140Z,3.10
2018-06-15T14:13:54.069Z,2.80
2018-06-15T14:16:40.852Z,2.62
2018-06-15T14:19:49.694Z,1.80
2018-06-15T14:22:42.686Z,1.82
2018-06-15T14:25:19.828Z,1.25
2018-06-15T14:27:52.092Z,3.02
2018-06-15T14:30:34.097Z,4.67
2018-06-15T14:33:22.075Z,3.58
2018-06-15T14:36:04.618Z,3.95
2018-06-15T14:41:40.109Z,2.62
2018-06-15T14:44:23.656Z,2.58
2018-06-15T14:47:16.176Z,2.05
2018-06-15T14:49:54.814Z,4.72
2018-06-15T14:52:38.861Z,2.30
2018-06-15T14:55:25.671Z,1.62
2018-06-15T14:58:15.862Z,2.47
2018-06-15T15:00:53.278Z,2.45
2018-06-15T15:03:36.788Z,1.35
2018-06-15T15:09:12.768Z,3.27
2018-06-15T15:11:55.222Z,1.82
2018-06-15T15:18:02.879Z,1.40
2018-06-15T15:20:43.977Z,1.25
2018-06-15T15:23:23.542Z,1.32
2018-06-15T15:31:37.203Z,1.52
2018-06-15T15:34:15.569Z,0.98
2018-06-15T15:36:55.159Z,1.72
2018-06-15T15:39:40.583Z,9.18
2018-06-15T15:45:25.141Z,0.93
2018-06-15T15:48:04.340Z,1.85
2018-06-15T15:53:49.412Z,2.98
2018-06-15T15:56:35.894Z,1.67
2018-06-15T15:59:15.892Z,1.17
2018-06-15T16:01:57.099Z,2.30
2018-06-15T16:07:28.727Z,1.67
2018-06-15T16:10:04.724Z,1.60
2018-06-15T16:16:19.708Z,1.35
2018-06-15T16:18:59.453Z,1.52
2018-06-15T16:21:35.135Z,1.98
2018-06-15T16:24:13.622Z,3.08
2018-06-15T16:26:59.514Z,1.62
2018-06-15T16:29:38.943Z,4.28
2018-06-15T16:32:30.392Z,1.07
2018-06-15T16:35:17.179Z,3.33
2018-06-15T16:37:55.181Z,2.45
2018-06-15T16:40:34.647Z,1.35
2018-06-15T16:43:19.705Z,1.00
2018-06-15T16:45:59.268Z,1.35
2018-06-15T16:51:31.424Z,1.62
2018-06-15T16:54:19.877Z,1.85
2018-06-15T16:57:00.657Z,1.20
2018-06-15T16:59:44.090Z,1.85
2018-06-15T17:02:26.591Z,1.82
2018-06-15T17:05:06.644Z,1.82
2018-06-15T17:07:49.383Z,1.07
2018-06-15T17:10:31.366Z,0.93
2018-06-15T17:13:13.458Z,2.12
2018-06-15T17:15:59.721Z,2.75
2018-06-15T17:18:33.706Z,2.02
2018-06-15T17:21:14.691Z,1.52
2018-06-15T17:23:51.856Z,1.65
2018-06-15T17:26:32.183Z,1.67
2018-06-15T17:29:21.478Z,2.90
2018-06-15T17:31:59.866Z,0.98
2018-06-15T17:34:36.275Z,1.77
2018-06-15T17:37:17.967Z,2.40
2018-06-15T17:40:00.138Z,2.25
2018-06-15T17:42:37.632Z,2.77
2018-06-15T17:45:12.457Z,2.17
2018-06-15T17:47:51.486Z,1.47
2018-06-15T17:50:38.955Z,1.10
2018-06-15T17:53:23.778Z,1.35
2018-06-15T17:59:05.086Z,1.17
2018-06-15T18:01:50.479Z,1.40
2018-06-15T18:04:42.074Z,2.15
2018-06-15T18:07:30.900Z,2.58
2018-06-15T18:10:12.027Z,1.65
2018-06-15T18:12:52.921Z,1.80
2018-06-15T18:18:36.251Z,2.42
2018-06-15T18:21:19.138Z,1.80
2018-06-15T18:27:02.396Z,2.55
2018-06-15T18:29:54.732Z,2.05
2018-06-15T18:38:21.648Z,1.02
2018-06-15T18:44:09.625Z,1.32
2018-06-15T18:47:11.115Z,1.12
2018-06-15T18:49:50.402Z,2.08
2018-06-15T18:52:36.198Z,1.70
2018-06-15T18:55:20.129Z,2.67
2018-06-15T18:58:03.701Z,1.45
2018-06-15T19:00:52.709Z,1.52
2018-06-15T19:03:31.250Z,1.15
2018-06-15T19:06:13.761Z,1.82
2018-06-15T19:09:00.381Z,1.65
2018-06-15T19:11:44.767Z,2.67
2018-06-15T19:14:29.386Z,2.17
2018-06-15T19:17:02.789Z,2.60
2018-06-15T19:19:58.277Z,1.75
2018-06-15T19:22:41.189Z,1.60
2018-06-15T19:25:21.705Z,3.30
2018-06-15T19:30:55.735Z,1.10
2018-06-15T19:33:36.391Z,1.20
2018-06-15T19:36:11.136Z,2.52
2018-06-15T19:38:54.559Z,1.85
2018-06-15T19:41:46.192Z,1.40
2018-06-15T19:44:30.823Z,3.00
2018-06-15T19:52:51.464Z,2.52
2018-06-15T19:58:31.743Z,1.95
2018-06-15T20:01:15.647Z,1.20
2018-06-15T20:04:15.114Z,2.83
2018-06-15T20:07:04.260Z,1.90
2018-06-15T20:15:19.267Z,1.90
2018-06-15T20:17:58.624Z,6.37
2018-06-15T20:20:36.330Z,1.73
2018-06-15T20:23:16.308Z,1.30
2018-06-15T20:25:57.432Z,3.07
2018-06-15T20:28:40.979Z,1.43
2018-06-15T20:31:25.707Z,1.87
2018-06-15T20:34:07.540Z,1.50
2018-06-15T20:39:56.606Z,2.17
2018-06-15T20:42:36.260Z,3.73
2018-06-15T20:45:23.949Z,3.43
2018-06-15T20:51:25.376Z,3.10
2018-06-15T20:54:05.110Z,2.50
2018-06-15T20:56:47.207Z,1.30
2018-06-15T20:59:27.464Z,2.40
2018-06-15T21:02:03.632Z,1.47
2018-06-15T21:04:42.178Z,2.63
2018-06-15T21:07:25.304Z,3.33
2018-06-15T21:10:06.651Z,1.17
2018-06-15T21:15:48.196Z,1.47
2018-06-15T21:18:32.333Z,1.67
2018-06-15T21:21:12.976Z,1.90
2018-06-15T21:23:46.001Z,2.47
2018-06-15T21:26:27.970Z,2.27
2018-06-15T21:29:17.543Z,1.23
2018-06-15T21:32:14.207Z,3.13
2018-06-15T21:40:55.728Z,4.67
2018-06-15T21:43:38.122Z,2.97
2018-06-15T21:46:21.862Z,2.30
2018-06-15T21:49:05.205Z,1.00
2018-06-15T21:54:40.041Z,2.27
2018-06-15T21:57:16.513Z,1.97
2018-06-15T22:00:02.643Z,1.23
2018-06-15T22:05:56.820Z,1.53
2018-06-15T22:09:24.099Z,4.20
2018-06-15T22:12:33.445Z,1.43
2018-06-15T22:15:12.032Z,1.33
2018-06-15T22:20:55.415Z,2.40
2018-06-15T22:23:37.994Z,1.27
2018-06-15T22:26:14.564Z,2.23
2018-06-15T22:28:52.625Z,2.70
2018-06-15T22:31:35.898Z,3.40
2018-06-15T22:34:22.712Z,2.63
2018-06-15T22:37:28.409Z,1.27
2018-06-15T22:40:08.734Z,1.57
2018-06-15T22:42:55.551Z,1.20
2018-06-15T22:45:38.999Z,1.93
2018-06-15T22:48:15.954Z,2.93
2018-06-15T22:50:56.853Z,1.90
2018-06-15T22:53:35.031Z,2.17
2018-06-15T22:56:15.290Z,3.30
2018-06-15T22:58:55.338Z,1.33
2018-06-15T23:01:33.246Z,1.07
2018-06-15T23:04:10.880Z,1.73
2018-06-15T23:06:52.743Z,1.47
2018-06-15T23:09:41.703Z,1.00
2018-06-15T23:12:27.182Z,2.70
2018-06-15T23:15:10.100Z,2.80
2018-06-15T23:20:39.456Z,2.43
2018-06-15T23:23:35.530Z,1.73
2018-06-15T23:26:17.342Z,1.63
2018-06-15T23:28:58.537Z,1.37
2018-06-15T23:31:37.994Z,2.43
2018-06-15T23:34:26.430Z,2.27
2018-06-15T23:37:05.339Z,1.37
2018-06-15T23:40:03.527Z,1.77
2018-06-15T23:42:44.358Z,1.77
2018-06-15T23:45:25.385Z,5.33
2018-06-15T23:48:08.948Z,3.20
2018-06-15T23:53:46.779Z,1.40
2018-06-15T23:56:25.899Z,1.13
2018-06-15T23:59:27.899Z,1.70
